DVO weather

Francisco Bangoy International Airport
Davao City, Davao Province, Philippines

Public forecast

Using degrees Celsius for public forecast. Weather courtesy of forecast.io.

METAR (pilot weather report)

Report is more than 2 hours old.

Retrieved 2019/03/25 03:00 UTC (2 hours ago):

RPMD 250300Z 01012KT 9999 FEW016 30/20 Q1013 RMK A2991

TAF (pilot weather forecast)

Forecast is more than 12 hours old.

Retrieved 2019/03/24 00:00 UTC (1 day ago):

TAF RPMD 242300Z 2500/2524 01008KT 9999 FEW016 SCT290 TEMPO 2500/2506 03014KT SCT016 BKN290